Time;durP1;ratioP1;P1;durP2;ratioP2;P2;SDS_P1;SDS_P2;PMS_P1;PMS_P2;Temp;Humidity;BMP_temperature;BMP_pressure;BME280_temperature;BME280_humidity;BME280_pressure;Samples;Min_cycle;Max_cycle;Signal;HPM_P1;HPM_P2
2023/08/24 00:01:23;;;;;;;3.20;2.50;;;;;;;;;;5022442;28;20219;-86
2023/08/24 00:03:49;;;;;;;3.05;2.55;;;;;;;;;;5021972;28;20414;-87
2023/08/24 00:06:17;;;;;;;4.05;2.25;;;;;;;;;;5025700;28;20211;-86
2023/08/24 00:08:45;;;;;;;3.15;2.60;;;;;;;;;;5036641;28;20227;-87
2023/08/24 00:11:14;;;;;;;2.60;2.40;;;;;;;;;;5057946;28;20203;-85
2023/08/24 00:13:48;;;;;;;3.90;2.50;;;;;;;;;;5018317;28;20223;-86
2023/08/24 00:16:15;;;;;;;3.20;2.25;;;;;;;;;;5017251;28;20227;-86
2023/08/24 00:18:42;;;;;;;2.85;2.65;;;;;;;;;;5040157;28;20365;-87
2023/08/24 00:21:08;;;;;;;3.33;2.75;;;;;;;;;;5008191;28;20424;-85
2023/08/24 00:23:36;;;;;;;4.80;2.80;;;;;;;;;;5034560;28;20262;-87
2023/08/24 00:26:05;;;;;;;3.83;2.60;;;;;;;;;;5038097;28;20269;-85
2023/08/24 00:28:31;;;;;;;2.63;2.42;;;;;;;;;;5050429;28;20227;-86
2023/08/24 00:30:56;;;;;;;2.63;2.42;;;;;;;;;;5037067;28;20211;-86
2023/08/24 00:33:22;;;;;;;4.30;2.40;;;;;;;;;;5033237;28;20278;-87
2023/08/24 00:35:50;;;;;;;3.00;2.80;;;;;;;;;;5046700;28;21052;-85
2023/08/24 00:38:18;;;;;;;2.67;2.47;;;;;;;;;;5013302;28;20215;-86
2023/08/24 00:40:43;;;;;;;8.00;3.05;;;;;;;;;;5014840;28;20223;-86
2023/08/24 00:43:09;;;;;;;4.38;2.67;;;;;;;;;;5012206;28;20741;-86
2023/08/24 00:45:35;;;;;;;3.95;2.72;;;;;;;;;;5014872;28;20744;-85
2023/08/24 00:48:04;;;;;;;3.15;2.60;;;;;;;;;;5019959;28;20231;-85
2023/08/24 00:50:32;;;;;;;2.88;2.67;;;;;;;;;;5020859;28;20223;-85
2023/08/24 00:52:59;;;;;;;2.72;2.47;;;;;;;;;;5040068;28;20222;-84
2023/08/24 00:55:27;;;;;;;2.95;2.67;;;;;;;;;;5024725;28;20630;-85
2023/08/24 00:57:53;;;;;;;2.72;2.53;;;;;;;;;;5019718;28;20545;-85
2023/08/24 01:00:21;;;;;;;3.47;3.17;;;;;;;;;;5008505;28;20218;-86
2023/08/24 01:02:51;;;;;;;2.50;2.30;;;;;;;;;;5018711;28;20370;-85
2023/08/24 01:05:19;;;;;;;4.82;2.60;;;;;;;;;;5026637;28;20638;-85
2023/08/24 01:07:47;;;;;;;2.60;2.40;;;;;;;;;;5018896;28;20302;-85
2023/08/24 01:10:14;;;;;;;2.75;2.55;;;;;;;;;;5018907;28;20223;-84
2023/08/24 01:13:07;;;;;;;2.67;2.47;;;;;;;;;;5018499;28;20291;-85
2023/08/24 01:15:42;;;;;;;4.00;2.50;;;;;;;;;;5037893;28;20219;-84
2023/08/24 01:18:14;;;;;;;3.05;2.78;;;;;;;;;;5029803;28;20228;-85
2023/08/24 01:20:41;;;;;;;2.92;2.63;;;;;;;;;;5024076;28;20226;-85
2023/08/24 01:23:32;;;;;;;4.38;2.80;;;;;;;;;;5009912;28;20356;-84
2023/08/24 01:26:19;;;;;;;3.13;2.60;;;;;;;;;;5042150;28;20293;-84
2023/08/24 01:28:45;;;;;;;2.70;2.50;;;;;;;;;;5003974;28;20231;-85
2023/08/24 01:31:10;;;;;;;2.25;2.08;;;;;;;;;;5007126;28;20589;-84
2023/08/24 01:33:39;;;;;;;2.33;2.20;;;;;;;;;;5034265;28;20219;-84
2023/08/24 01:36:05;;;;;;;2.50;2.30;;;;;;;;;;5038081;28;20218;-85
2023/08/24 01:38:33;;;;;;;2.35;2.20;;;;;;;;;;5020836;28;20309;-84
2023/08/24 01:41:01;;;;;;;2.70;2.50;;;;;;;;;;5023806;28;20289;-83
2023/08/24 01:43:34;;;;;;;2.83;2.55;;;;;;;;;;5055980;28;20583;-83
2023/08/24 01:46:02;;;;;;;3.08;2.60;;;;;;;;;;5038638;28;20356;-84
2023/08/24 01:48:33;;;;;;;3.00;2.80;;;;;;;;;;4999538;28;20292;-83
2023/08/24 01:51:01;;;;;;;3.03;2.83;;;;;;;;;;5020398;28;20218;-84
2023/08/24 01:53:27;;;;;;;3.78;3.20;;;;;;;;;;5022117;28;20218;-84
2023/08/24 01:55:53;;;;;;;4.28;2.78;;;;;;;;;;5036442;28;20222;-84
2023/08/24 01:58:19;;;;;;;2.97;2.63;;;;;;;;;;5018973;28;20206;-84
2023/08/24 02:00:44;;;;;;;3.55;2.83;;;;;;;;;;5005665;28;20219;-84
2023/08/24 02:03:10;;;;;;;4.88;2.95;;;;;;;;;;5021465;28;20264;-84
2023/08/24 02:05:36;;;;;;;9.60;3.63;;;;;;;;;;5024773;28;20223;-84
2023/08/24 02:08:01;;;;;;;2.67;2.47;;;;;;;;;;5015154;28;20219;-84
2023/08/24 02:10:29;;;;;;;3.00;2.78;;;;;;;;;;5036696;28;20225;-84
2023/08/24 02:12:57;;;;;;;3.17;2.72;;;;;;;;;;5010112;28;20311;-83
2023/08/24 02:15:26;;;;;;;3.67;3.28;;;;;;;;;;5014035;28;20684;-83
2023/08/24 02:17:51;;;;;;;3.45;2.60;;;;;;;;;;5016103;28;20264;-84
2023/08/24 02:20:17;;;;;;;2.90;2.70;;;;;;;;;;5033751;28;20623;-84
2023/08/24 02:22:42;;;;;;;2.83;2.63;;;;;;;;;;5015667;28;20246;-84
2023/08/24 02:25:11;;;;;;;4.63;2.67;;;;;;;;;;5004420;28;20219;-83
2023/08/24 02:27:37;;;;;;;2.65;2.45;;;;;;;;;;5015585;28;20223;-84
2023/08/24 02:30:05;;;;;;;3.17;2.97;;;;;;;;;;5016825;28;20229;-84
2023/08/24 02:32:38;;;;;;;4.40;3.00;;;;;;;;;;5023088;28;20223;-84
2023/08/24 02:35:04;;;;;;;3.55;3.20;;;;;;;;;;5036907;28;20222;-83
2023/08/24 02:37:30;;;;;;;2.80;2.60;;;;;;;;;;5030491;28;20787;-83
2023/08/24 02:39:56;;;;;;;3.20;2.90;;;;;;;;;;5019329;28;20223;-84
2023/08/24 02:42:21;;;;;;;2.92;2.67;;;;;;;;;;5040916;28;20272;-84
2023/08/24 02:44:49;;;;;;;2.80;2.60;;;;;;;;;;5017991;28;20306;-85
2023/08/24 02:47:15;;;;;;;2.78;2.58;;;;;;;;;;5002573;28;20217;-84
2023/08/24 02:49:42;;;;;;;2.75;2.55;;;;;;;;;;5014282;28;20234;-85
2023/08/24 02:52:08;;;;;;;2.95;2.75;;;;;;;;;;5048087;28;20673;-84
2023/08/24 02:54:37;;;;;;;2.90;2.60;;;;;;;;;;5025252;28;20222;-84
2023/08/24 02:57:03;;;;;;;2.70;2.50;;;;;;;;;;5015344;28;20226;-84
2023/08/24 02:59:29;;;;;;;3.10;2.63;;;;;;;;;;5019561;28;20599;-84
2023/08/24 03:01:58;;;;;;;2.92;2.72;;;;;;;;;;5034434;28;20215;-84
2023/08/24 03:04:27;;;;;;;2.53;2.33;;;;;;;;;;5044611;28;20223;-84
2023/08/24 03:06:53;;;;;;;3.03;2.63;;;;;;;;;;5037633;28;20514;-84
2023/08/24 03:09:22;;;;;;;2.92;2.58;;;;;;;;;;5013520;28;20226;-83
2023/08/24 03:11:50;;;;;;;2.90;2.67;;;;;;;;;;5018822;28;20360;-84
2023/08/24 03:14:18;;;;;;;3.17;2.97;;;;;;;;;;5018034;28;20298;-84
2023/08/24 03:16:46;;;;;;;3.33;3.10;;;;;;;;;;5025071;28;20198;-83
2023/08/24 03:19:17;;;;;;;3.63;3.33;;;;;;;;;;5032487;28;20526;-83
2023/08/24 03:21:46;;;;;;;4.72;3.53;;;;;;;;;;5046478;28;20215;-84
2023/08/24 03:24:15;;;;;;;3.08;2.88;;;;;;;;;;5038190;28;20218;-83
2023/08/24 03:26:40;;;;;;;3.08;2.88;;;;;;;;;;5032569;28;20250;-85
2023/08/24 03:29:08;;;;;;;3.42;3.15;;;;;;;;;;5025485;28;20215;-85
2023/08/24 03:31:33;;;;;;;3.50;3.30;;;;;;;;;;5028710;28;20225;-86
2023/08/24 03:33:59;;;;;;;5.78;3.30;;;;;;;;;;5005862;28;20223;-86
2023/08/24 03:36:24;;;;;;;3.60;3.35;;;;;;;;;;5036549;28;20217;-86
2023/08/24 03:38:51;;;;;;;3.67;3.20;;;;;;;;;;5060007;28;20218;-87
2023/08/24 03:41:19;;;;;;;3.33;3.10;;;;;;;;;;5052883;28;20207;-86
2023/08/24 03:43:45;;;;;;;2.65;2.45;;;;;;;;;;5016466;28;20218;-86
2023/08/24 03:46:11;;;;;;;3.17;2.53;;;;;;;;;;5014717;28;20224;-85
2023/08/24 03:48:39;;;;;;;3.17;2.97;;;;;;;;;;5000167;28;20222;-84
2023/08/24 03:51:05;;;;;;;3.30;3.00;;;;;;;;;;5019369;28;20224;-84
2023/08/24 03:53:32;;;;;;;3.35;2.90;;;;;;;;;;5033170;28;20219;-85
2023/08/24 03:56:00;;;;;;;2.70;2.60;;;;;;;;;;5012876;28;20218;-84
2023/08/24 03:58:25;;;;;;;3.33;2.40;;;;;;;;;;4989488;28;20214;-85
2023/08/24 04:04:41;;;;;;;3.20;2.63;;;;;;;;;;5064859;28;20352;-85
2023/08/24 04:07:07;;;;;;;2.75;2.55;;;;;;;;;;5010435;28;20216;-85
2023/08/24 04:09:33;;;;;;;3.05;2.85;;;;;;;;;;5021814;28;20233;-86
2023/08/24 04:12:03;;;;;;;3.92;2.83;;;;;;;;;;5033912;28;20722;-86
2023/08/24 04:14:29;;;;;;;3.00;2.80;;;;;;;;;;5053724;28;20233;-86
2023/08/24 04:16:55;;;;;;;2.92;2.72;;;;;;;;;;5011711;28;20210;-85
2023/08/24 04:19:23;;;;;;;3.13;2.88;;;;;;;;;;5012265;28;20671;-85
2023/08/24 04:21:49;;;;;;;2.95;2.75;;;;;;;;;;5033992;28;20219;-85
2023/08/24 04:24:14;;;;;;;3.13;2.78;;;;;;;;;;5018320;28;20646;-84
2023/08/24 04:26:42;;;;;;;3.95;3.20;;;;;;;;;;5029491;28;20273;-84
2023/08/24 04:29:08;;;;;;;2.80;2.60;;;;;;;;;;5027753;28;20777;-84
2023/08/24 04:31:37;;;;;;;3.45;2.50;;;;;;;;;;5010777;28;20228;-84
2023/08/24 04:34:05;;;;;;;2.85;2.65;;;;;;;;;;5011667;28;20227;-84
2023/08/24 04:36:33;;;;;;;2.80;2.60;;;;;;;;;;5032365;28;20206;-84
2023/08/24 04:38:59;;;;;;;2.65;2.45;;;;;;;;;;5012750;28;20211;-84
2023/08/24 04:41:24;;;;;;;2.35;2.25;;;;;;;;;;5035088;28;20214;-85
2023/08/24 04:43:52;;;;;;;2.75;2.55;;;;;;;;;;5014186;28;20219;-84
2023/08/24 04:46:18;;;;;;;2.53;2.33;;;;;;;;;;5009800;28;20206;-84
2023/08/24 04:48:43;;;;;;;4.07;2.20;;;;;;;;;;5037500;28;20491;-85
2023/08/24 04:51:09;;;;;;;2.55;2.33;;;;;;;;;;5027587;28;20218;-84
2023/08/24 04:53:34;;;;;;;3.38;2.20;;;;;;;;;;5032478;28;20222;-84
2023/08/24 04:56:02;;;;;;;2.60;2.40;;;;;;;;;;5004235;28;20209;-82
2023/08/24 04:58:28;;;;;;;1.98;1.88;;;;;;;;;;5026133;28;20230;-84
2023/08/24 05:00:55;;;;;;;2.55;2.35;;;;;;;;;;5025893;28;21222;-84
2023/08/24 05:03:23;;;;;;;3.45;2.38;;;;;;;;;;5037840;28;20573;-85
2023/08/24 05:05:53;;;;;;;7.03;2.53;;;;;;;;;;5027836;28;20298;-84
2023/08/24 05:08:19;;;;;;;3.45;2.58;;;;;;;;;;5040615;28;20572;-84
2023/08/24 05:10:49;;;;;;;2.75;2.55;;;;;;;;;;5014463;28;20243;-83
2023/08/24 05:13:15;;;;;;;2.97;2.50;;;;;;;;;;5043604;28;20297;-82
2023/08/24 05:15:40;;;;;;;2.38;1.92;;;;;;;;;;5033469;28;20215;-82
2023/08/24 05:18:09;;;;;;;5.68;2.40;;;;;;;;;;5016522;28;20223;-83
2023/08/24 05:20:34;;;;;;;2.53;2.30;;;;;;;;;;5018737;28;20711;-83
2023/08/24 05:23:00;;;;;;;2.50;2.30;;;;;;;;;;5018576;28;20216;-82
2023/08/24 05:25:25;;;;;;;2.15;2.05;;;;;;;;;;5040307;28;20222;-83
2023/08/24 05:27:53;;;;;;;3.65;2.50;;;;;;;;;;5021952;28;20219;-83
2023/08/24 05:30:18;;;;;;;2.88;2.38;;;;;;;;;;5021165;28;20219;-84
2023/08/24 05:32:49;;;;;;;2.75;2.50;;;;;;;;;;5018132;28;20222;-83
2023/08/24 05:35:17;;;;;;;2.50;2.28;;;;;;;;;;5025829;28;20222;-83
2023/08/24 05:37:42;;;;;;;4.05;2.97;;;;;;;;;;5020849;28;20930;-84
2023/08/24 05:40:10;;;;;;;3.03;2.80;;;;;;;;;;5008146;28;20218;-85
2023/08/24 05:42:38;;;;;;;2.65;2.45;;;;;;;;;;5040891;28;20210;-84
2023/08/24 05:45:04;;;;;;;3.42;3.00;;;;;;;;;;5025254;28;20230;-83
2023/08/24 05:47:30;;;;;;;5.20;3.13;;;;;;;;;;5038694;28;20231;-84
2023/08/24 05:49:58;;;;;;;3.53;3.22;;;;;;;;;;5017730;28;20215;-83
2023/08/24 05:52:25;;;;;;;3.05;2.80;;;;;;;;;;5050448;28;20315;-83
2023/08/24 05:54:51;;;;;;;3.20;2.92;;;;;;;;;;5019222;28;20699;-82
2023/08/24 05:57:20;;;;;;;3.63;2.85;;;;;;;;;;5009825;28;20234;-84
2023/08/24 05:59:47;;;;;;;3.42;3.13;;;;;;;;;;5024712;28;20226;-83
2023/08/24 06:02:15;;;;;;;3.30;2.97;;;;;;;;;;5020288;28;20699;-83
2023/08/24 06:04:41;;;;;;;3.53;3.00;;;;;;;;;;5027292;28;20314;-83
2023/08/24 06:07:06;;;;;;;2.63;2.42;;;;;;;;;;5025473;28;20219;-83
2023/08/24 06:09:32;;;;;;;4.53;3.72;;;;;;;;;;5042552;28;20276;-84
2023/08/24 06:11:57;;;;;;;3.35;3.10;;;;;;;;;;5016871;28;20238;-84
2023/08/24 06:14:25;;;;;;;4.13;3.17;;;;;;;;;;5024542;28;20291;-83
2023/08/24 06:16:53;;;;;;;3.08;2.85;;;;;;;;;;5056667;28;20215;-83
2023/08/24 06:19:19;;;;;;;5.63;2.97;;;;;;;;;;5029904;28;20219;-84
2023/08/24 06:21:49;;;;;;;3.33;2.70;;;;;;;;;;5024107;28;20222;-85
2023/08/24 06:24:17;;;;;;;2.88;2.55;;;;;;;;;;5028162;28;20309;-84
2023/08/24 06:26:45;;;;;;;3.50;2.72;;;;;;;;;;5041672;28;20218;-85
2023/08/24 06:29:13;;;;;;;3.47;3.17;;;;;;;;;;5009768;28;20318;-84
2023/08/24 06:31:40;;;;;;;6.03;4.13;;;;;;;;;;5043197;28;20243;-84
2023/08/24 06:34:13;;;;;;;4.63;4.13;;;;;;;;;;5045432;28;20219;-84
2023/08/24 06:36:38;;;;;;;6.13;4.30;;;;;;;;;;5024337;28;20226;-84
2023/08/24 06:39:04;;;;;;;5.78;3.97;;;;;;;;;;5020233;28;20230;-85
2023/08/24 06:41:36;;;;;;;4.50;3.83;;;;;;;;;;5023216;28;20292;-85
2023/08/24 06:44:06;;;;;;;4.15;3.75;;;;;;;;;;5044869;28;20218;-83
2023/08/24 06:46:32;;;;;;;3.45;3.10;;;;;;;;;;5040278;28;20226;-84
2023/08/24 06:48:59;;;;;;;6.38;3.50;;;;;;;;;;5022201;28;20238;-84
2023/08/24 06:51:28;;;;;;;4.18;3.50;;;;;;;;;;5025045;28;20219;-85
2023/08/24 06:53:58;;;;;;;6.13;3.42;;;;;;;;;;5043826;28;20295;-83
2023/08/24 06:56:26;;;;;;;5.63;3.90;;;;;;;;;;5042751;28;20238;-84
2023/08/24 06:58:52;;;;;;;4.53;2.90;;;;;;;;;;5018173;28;20215;-84
2023/08/24 07:01:17;;;;;;;3.55;3.15;;;;;;;;;;5034754;28;20214;-83
2023/08/24 07:03:43;;;;;;;4.13;3.30;;;;;;;;;;5038377;28;20305;-83
2023/08/24 07:06:08;;;;;;;6.38;3.63;;;;;;;;;;5035811;28;20215;-84
2023/08/24 07:08:34;;;;;;;3.80;3.05;;;;;;;;;;5040629;28;20233;-83
2023/08/24 07:11:03;;;;;;;5.20;3.17;;;;;;;;;;5018096;28;20211;-83
2023/08/24 07:13:30;;;;;;;6.90;3.88;;;;;;;;;;5019682;28;20242;-82
2023/08/24 07:15:56;;;;;;;7.07;3.97;;;;;;;;;;5069532;28;20230;-82
2023/08/24 07:18:24;;;;;;;5.03;4.60;;;;;;;;;;5021331;28;20215;-85
2023/08/24 07:20:52;;;;;;;5.40;4.90;;;;;;;;;;5019927;28;20219;-83
2023/08/24 07:23:20;;;;;;;8.73;4.88;;;;;;;;;;5031274;28;20223;-83
2023/08/24 07:25:45;;;;;;;4.20;3.50;;;;;;;;;;5030987;28;20241;-83
2023/08/24 07:28:11;;;;;;;3.88;3.58;;;;;;;;;;5033332;28;20210;-83
2023/08/24 07:30:41;;;;;;;5.80;3.80;;;;;;;;;;5020552;28;20234;-84
2023/08/24 07:33:09;;;;;;;5.18;4.05;;;;;;;;;;5018335;28;20311;-83
2023/08/24 07:35:35;;;;;;;3.58;2.83;;;;;;;;;;5033186;28;20672;-84
2023/08/24 07:38:04;;;;;;;4.28;3.88;;;;;;;;;;5039126;28;20240;-83
2023/08/24 07:40:30;;;;;;;6.28;3.72;;;;;;;;;;5029967;28;20211;-83
2023/08/24 07:42:56;;;;;;;4.47;3.30;;;;;;;;;;5036313;28;20203;-84
2023/08/24 07:45:24;;;;;;;8.45;3.60;;;;;;;;;;5041719;28;20241;-84
2023/08/24 07:47:52;;;;;;;4.47;3.13;;;;;;;;;;5029515;28;20248;-84
2023/08/24 07:50:20;;;;;;;3.08;2.70;;;;;;;;;;5027146;28;20219;-84
2023/08/24 07:52:48;;;;;;;3.50;2.63;;;;;;;;;;5027736;28;20211;-85
2023/08/24 07:55:14;;;;;;;3.70;2.22;;;;;;;;;;5044716;28;20528;-84
2023/08/24 07:57:39;;;;;;;3.13;2.30;;;;;;;;;;5019449;28;20223;-85
2023/08/24 08:00:05;;;;;;;3.78;1.98;;;;;;;;;;5031350;28;20211;-84
2023/08/24 08:02:42;;;;;;;3.90;1.83;;;;;;;;;;5029944;28;20269;-84
2023/08/24 08:05:10;;;;;;;2.40;2.00;;;;;;;;;;5033846;28;21084;-84
2023/08/24 08:07:35;;;;;;;3.30;2.05;;;;;;;;;;5043517;28;20222;-85
2023/08/24 08:10:06;;;;;;;2.70;2.10;;;;;;;;;;5045911;28;20242;-84
2023/08/24 08:12:33;;;;;;;3.63;1.95;;;;;;;;;;5035834;28;20278;-85
2023/08/24 08:15:01;;;;;;;2.08;1.70;;;;;;;;;;5033004;28;20228;-85
2023/08/24 08:17:30;;;;;;;2.03;1.42;;;;;;;;;;5037813;28;20219;-85
2023/08/24 08:19:56;;;;;;;2.30;1.50;;;;;;;;;;5015478;28;20610;-86
2023/08/24 08:22:25;;;;;;;2.53;1.50;;;;;;;;;;5053019;28;20234;-84
2023/08/24 08:24:51;;;;;;;2.90;1.38;;;;;;;;;;5019752;28;20276;-84
2023/08/24 08:27:16;;;;;;;3.22;1.75;;;;;;;;;;5034229;28;20215;-82
2023/08/24 08:29:44;;;;;;;2.67;1.70;;;;;;;;;;5059818;28;20245;-85
2023/08/24 08:32:12;;;;;;;1.60;1.50;;;;;;;;;;5027580;28;20215;-84
2023/08/24 08:34:40;;;;;;;1.75;1.35;;;;;;;;;;5040972;28;20214;-82
2023/08/24 08:37:06;;;;;;;2.25;1.60;;;;;;;;;;5019822;28;20742;-82
2023/08/24 08:39:32;;;;;;;2.17;1.60;;;;;;;;;;5024251;28;20223;-83
2023/08/24 08:42:01;;;;;;;4.32;1.50;;;;;;;;;;5017778;28;20310;-84
2023/08/24 08:44:29;;;;;;;1.80;1.38;;;;;;;;;;5018000;28;20737;-84
2023/08/24 08:46:57;;;;;;;1.67;1.30;;;;;;;;;;5042402;28;20252;-83
2023/08/24 08:49:25;;;;;;;2.45;1.50;;;;;;;;;;5039896;28;20231;-83
2023/08/24 08:51:51;;;;;;;2.13;1.73;;;;;;;;;;5023737;28;20211;-84
2023/08/24 08:54:17;;;;;;;2.20;2.00;;;;;;;;;;5028347;28;20219;-85
2023/08/24 08:56:44;;;;;;;1.88;1.55;;;;;;;;;;5024024;28;20225;-85
2023/08/24 08:59:15;;;;;;;2.78;1.42;;;;;;;;;;5056908;28;20203;-84
2023/08/24 09:01:47;;;;;;;3.03;1.52;;;;;;;;;;5034049;28;20218;-84
2023/08/24 09:04:47;;;;;;;2.08;1.70;;;;;;;;;;5040200;28;20239;-83
2023/08/24 09:07:15;;;;;;;2.55;1.65;;;;;;;;;;5052363;28;20272;-84
2023/08/24 09:09:43;;;;;;;2.40;1.55;;;;;;;;;;5021049;28;20997;-85
2023/08/24 09:12:08;;;;;;;2.95;1.33;;;;;;;;;;5026838;28;20215;-82
2023/08/24 09:14:36;;;;;;;2.38;1.80;;;;;;;;;;5027575;28;20280;-87
2023/08/24 09:17:03;;;;;;;4.25;1.80;;;;;;;;;;5004327;28;20271;-84
2023/08/24 09:19:32;;;;;;;5.22;1.90;;;;;;;;;;5003604;28;20276;-84
2023/08/24 09:22:01;;;;;;;2.25;1.50;;;;;;;;;;5028832;28;20214;-82
2023/08/24 09:24:35;;;;;;;4.13;1.77;;;;;;;;;;5021638;28;20238;-83
2023/08/24 09:27:16;;;;;;;3.25;1.80;;;;;;;;;;5023957;28;20477;-83
2023/08/24 09:29:41;;;;;;;3.20;1.70;;;;;;;;;;5022120;28;20237;-84
2023/08/24 09:32:10;;;;;;;8.38;1.85;;;;;;;;;;5022233;28;20517;-84
2023/08/24 09:34:40;;;;;;;3.97;2.13;;;;;;;;;;5016386;28;20218;-84
2023/08/24 09:37:36;;;;;;;3.47;1.80;;;;;;;;;;5022355;28;20212;-84
2023/08/24 09:40:09;;;;;;;3.03;1.80;;;;;;;;;;5048461;28;20964;-83
2023/08/24 09:42:41;;;;;;;2.90;2.30;;;;;;;;;;5027099;28;20225;-85
2023/08/24 09:45:16;;;;;;;2.72;2.42;;;;;;;;;;5045589;28;20229;-85
2023/08/24 09:47:53;;;;;;;2.72;2.20;;;;;;;;;;5025410;28;20222;-83
2023/08/24 09:50:19;;;;;;;3.70;1.90;;;;;;;;;;5024111;28;20233;-83
2023/08/24 09:52:49;;;;;;;2.60;1.98;;;;;;;;;;5039667;28;20215;-85
2023/08/24 09:55:19;;;;;;;2.72;2.22;;;;;;;;;;5036158;28;20702;-84
2023/08/24 09:57:45;;;;;;;5.38;2.47;;;;;;;;;;5038715;28;20306;-85
2023/08/24 10:00:11;;;;;;;3.22;2.20;;;;;;;;;;5049391;28;20215;-84
2023/08/24 10:02:57;;;;;;;5.53;2.60;;;;;;;;;;5027371;28;20234;-84
2023/08/24 10:05:25;;;;;;;5.05;2.10;;;;;;;;;;5073812;28;20214;-82
2023/08/24 10:07:54;;;;;;;3.00;2.33;;;;;;;;;;5060818;28;20222;-84
2023/08/24 10:10:27;;;;;;;4.68;2.53;;;;;;;;;;5032426;28;20261;-82
2023/08/24 10:12:59;;;;;;;3.00;2.70;;;;;;;;;;5068745;28;20230;-83
2023/08/24 10:15:28;;;;;;;2.75;2.28;;;;;;;;;;5031270;28;20227;-83
2023/08/24 10:17:54;;;;;;;2.60;2.25;;;;;;;;;;5040682;28;20230;-83
2023/08/24 10:20:20;;;;;;;6.07;2.55;;;;;;;;;;5024288;28;20214;-83
2023/08/24 10:22:46;;;;;;;3.20;2.35;;;;;;;;;;5037761;28;20250;-83
2023/08/24 10:25:12;;;;;;;4.88;2.25;;;;;;;;;;5068416;28;20199;-85
2023/08/24 10:27:43;;;;;;;3.50;2.60;;;;;;;;;;5039866;28;20608;-84
2023/08/24 10:30:14;;;;;;;2.38;2.17;;;;;;;;;;5034391;28;20227;-84
2023/08/24 10:32:43;;;;;;;3.53;2.30;;;;;;;;;;5052064;28;20238;-86
2023/08/24 10:35:08;;;;;;;6.43;2.47;;;;;;;;;;5042180;28;20236;-84
2023/08/24 10:37:36;;;;;;;3.55;2.17;;;;;;;;;;5060414;28;20226;-85
2023/08/24 10:40:04;;;;;;;2.47;2.13;;;;;;;;;;5039012;28;20207;-85
2023/08/24 10:42:43;;;;;;;4.47;2.75;;;;;;;;;;5034994;28;20293;-85
2023/08/24 10:45:13;;;;;;;3.03;2.40;;;;;;;;;;5034332;28;20230;-84
2023/08/24 10:47:45;;;;;;;3.15;2.17;;;;;;;;;;5023165;28;20210;-85
2023/08/24 10:50:16;;;;;;;2.90;2.42;;;;;;;;;;5016346;28;20885;-86
2023/08/24 10:52:44;;;;;;;3.28;2.38;;;;;;;;;;5042061;28;20218;-87
2023/08/24 10:55:26;;;;;;;3.70;2.28;;;;;;;;;;5025771;28;20296;-84
2023/08/24 10:57:59;;;;;;;2.67;2.00;;;;;;;;;;5039714;28;20407;-84
2023/08/24 11:00:30;;;;;;;3.55;2.20;;;;;;;;;;5035637;28;20300;-85
2023/08/24 11:02:56;;;;;;;1.98;1.77;;;;;;;;;;5040343;28;20218;-85
2023/08/24 11:05:30;;;;;;;6.38;1.77;;;;;;;;;;5035633;28;20211;-84
2023/08/24 11:08:07;;;;;;;4.70;1.88;;;;;;;;;;5005816;28;20260;-85
2023/08/24 11:10:43;;;;;;;3.95;1.92;;;;;;;;;;5036232;28;20238;-85
2023/08/24 11:13:19;;;;;;;4.55;2.22;;;;;;;;;;5032021;28;20709;-86
2023/08/24 11:15:46;;;;;;;2.42;1.73;;;;;;;;;;5002630;28;20214;-86
2023/08/24 11:18:15;;;;;;;3.88;2.00;;;;;;;;;;5020510;28;20257;-85
2023/08/24 11:21:00;;;;;;;4.00;2.10;;;;;;;;;;5032237;28;20231;-86
2023/08/24 11:23:28;;;;;;;1.73;1.63;;;;;;;;;;5003469;28;20249;-86
2023/08/24 11:25:57;;;;;;;1.92;1.70;;;;;;;;;;5037104;28;20616;-84
2023/08/24 11:28:29;;;;;;;2.15;1.70;;;;;;;;;;5003912;28;20356;-84
2023/08/24 11:30:58;;;;;;;6.78;1.90;;;;;;;;;;5052077;28;20216;-82
2023/08/24 11:33:33;;;;;;;1.38;1.25;;;;;;;;;;5020934;28;20227;-86
2023/08/24 11:36:03;;;;;;;2.03;1.55;;;;;;;;;;5037679;28;20219;-85
2023/08/24 11:38:38;;;;;;;2.22;1.70;;;;;;;;;;5025377;28;20218;-86
2023/08/24 11:41:12;;;;;;;4.57;2.58;;;;;;;;;;5027430;28;20272;-87
2023/08/24 11:43:38;;;;;;;4.43;2.03;;;;;;;;;;5054233;28;20231;-88
2023/08/24 11:46:06;;;;;;;3.83;2.40;;;;;;;;;;5005255;28;20698;-85
2023/08/24 11:48:36;;;;;;;5.20;2.40;;;;;;;;;;5020133;28;20219;-86
2023/08/24 11:51:02;;;;;;;2.90;2.58;;;;;;;;;;5023126;28;20214;-86
2023/08/24 11:53:31;;;;;;;3.53;2.20;;;;;;;;;;5040735;28;20230;-85
2023/08/24 11:55:59;;;;;;;2.28;2.08;;;;;;;;;;5035697;28;20223;-87
2023/08/24 11:58:28;;;;;;;3.78;2.20;;;;;;;;;;5023152;28;20222;-85
2023/08/24 12:00:55;;;;;;;3.53;2.00;;;;;;;;;;5041936;28;20241;-87
2023/08/24 12:03:22;;;;;;;2.80;1.52;;;;;;;;;;5026533;28;20215;-88
2023/08/24 12:06:26;;;;;;;3.28;1.70;;;;;;;;;;5040735;28;20215;-87
2023/08/24 12:08:55;;;;;;;1.80;1.70;;;;;;;;;;5014009;28;20293;-86
2023/08/24 12:11:25;;;;;;;2.45;1.67;;;;;;;;;;5041665;28;20253;-85
2023/08/24 12:13:54;;;;;;;2.20;1.60;;;;;;;;;;5034814;28;20298;-86
2023/08/24 12:16:23;;;;;;;2.50;1.85;;;;;;;;;;5039232;28;20211;-84
2023/08/24 12:18:55;;;;;;;2.78;1.50;;;;;;;;;;5051102;28;20265;-86
2023/08/24 12:21:22;;;;;;;1.90;1.70;;;;;;;;;;5030269;28;20590;-85
2023/08/24 12:24:00;;;;;;;1.67;1.50;;;;;;;;;;5013056;28;20207;-86
2023/08/24 12:26:26;;;;;;;2.45;1.55;;;;;;;;;;5058974;28;20233;-84
2023/08/24 12:28:55;;;;;;;2.08;1.65;;;;;;;;;;5005897;28;20280;-84
2023/08/24 12:31:25;;;;;;;4.03;1.80;;;;;;;;;;5018544;28;20333;-85
2023/08/24 12:34:04;;;;;;;1.80;1.40;;;;;;;;;;5045843;28;20225;-85
2023/08/24 12:36:33;;;;;;;1.40;1.30;;;;;;;;;;5052108;28;20218;-85
2023/08/24 12:38:59;;;;;;;2.67;1.60;;;;;;;;;;5015231;28;20212;-84
2023/08/24 12:41:26;;;;;;;1.98;1.55;;;;;;;;;;5034441;28;20233;-85
2023/08/24 12:43:52;;;;;;;3.58;1.70;;;;;;;;;;5037682;28;20603;-86
2023/08/24 12:46:18;;;;;;;5.57;2.15;;;;;;;;;;5000822;28;20211;-85
2023/08/24 12:48:46;;;;;;;2.95;1.50;;;;;;;;;;5017729;28;20279;-86
2023/08/24 12:51:14;;;;;;;3.20;1.73;;;;;;;;;;5034572;28;20241;-86
2023/08/24 12:53:39;;;;;;;3.05;1.67;;;;;;;;;;5022330;28;20231;-87
2023/08/24 12:56:08;;;;;;;2.35;1.40;;;;;;;;;;5020921;28;20256;-84
2023/08/24 12:58:33;;;;;;;4.03;1.40;;;;;;;;;;5036642;28;20219;-88
2023/08/24 13:01:02;;;;;;;2.97;1.75;;;;;;;;;;5038385;28;20230;-85
2023/08/24 13:03:28;;;;;;;3.22;1.50;;;;;;;;;;5018968;28;20231;-87
2023/08/24 13:05:53;;;;;;;2.50;1.70;;;;;;;;;;5040719;28;20726;-86
2023/08/24 13:08:19;;;;;;;1.48;1.38;;;;;;;;;;5007345;28;20285;-85
2023/08/24 13:10:48;;;;;;;2.53;1.45;;;;;;;;;;5018803;28;20624;-85
2023/08/24 13:13:13;;;;;;;2.00;1.30;;;;;;;;;;5033887;28;20211;-85
2023/08/24 13:15:39;;;;;;;1.45;1.35;;;;;;;;;;5015706;28;20223;-84
2023/08/24 13:18:04;;;;;;;1.60;1.50;;;;;;;;;;5036684;28;20241;-85
2023/08/24 13:20:30;;;;;;;1.52;1.33;;;;;;;;;;5025380;28;20215;-85
2023/08/24 13:22:55;;;;;;;6.03;1.60;;;;;;;;;;5020085;28;20229;-84
2023/08/24 13:25:21;;;;;;;2.80;1.45;;;;;;;;;;5063461;28;20202;-84
2023/08/24 13:27:46;;;;;;;1.33;1.10;;;;;;;;;;5017841;28;20218;-85
2023/08/24 13:30:14;;;;;;;1.30;1.20;;;;;;;;;;5032461;28;20227;-84
2023/08/24 13:32:44;;;;;;;1.67;1.45;;;;;;;;;;5024251;28;20321;-82
2023/08/24 13:35:10;;;;;;;2.53;1.40;;;;;;;;;;5047775;28;20224;-83
2023/08/24 13:37:40;;;;;;;2.25;1.38;;;;;;;;;;5027723;28;20287;-83
2023/08/24 13:40:09;;;;;;;3.78;1.50;;;;;;;;;;5039226;28;20218;-84
2023/08/24 13:42:37;;;;;;;7.03;1.75;;;;;;;;;;5025937;28;20226;-81
2023/08/24 13:45:03;;;;;;;2.35;1.45;;;;;;;;;;5037838;28;20217;-82
2023/08/24 13:47:31;;;;;;;4.45;1.55;;;;;;;;;;5071282;28;20245;-82
2023/08/24 13:49:58;;;;;;;2.10;1.42;;;;;;;;;;5032367;28;20226;-83
2023/08/24 13:52:29;;;;;;;4.32;1.20;;;;;;;;;;5008010;28;20222;-84
2023/08/24 13:54:56;;;;;;;1.42;1.20;;;;;;;;;;5027812;28;20211;-84
2023/08/24 13:57:26;;;;;;;2.15;1.30;;;;;;;;;;5025621;28;20219;-83
2023/08/24 13:59:54;;;;;;;1.35;1.10;;;;;;;;;;5028517;28;20463;-84
2023/08/24 14:02:22;;;;;;;2.17;1.60;;;;;;;;;;5006192;28;20234;-84
2023/08/24 14:04:50;;;;;;;3.45;1.40;;;;;;;;;;5053301;28;20275;-83
2023/08/24 14:07:16;;;;;;;2.25;1.10;;;;;;;;;;5021101;28;20287;-84
2023/08/24 14:09:46;;;;;;;2.22;1.25;;;;;;;;;;5033559;28;20714;-83
2023/08/24 14:12:50;;;;;;;2.20;1.40;;;;;;;;;;5058442;28;20219;-84
2023/08/24 14:15:21;;;;;;;2.20;1.42;;;;;;;;;;5033433;28;20215;-83
2023/08/24 14:17:47;;;;;;;0.90;0.90;;;;;;;;;;5032497;28;20219;-83
2023/08/24 14:20:15;;;;;;;1.55;1.20;;;;;;;;;;5042272;28;20230;-83
2023/08/24 14:22:45;;;;;;;1.50;1.40;;;;;;;;;;5020193;28;20215;-83
2023/08/24 14:25:10;;;;;;;4.30;1.25;;;;;;;;;;5019208;28;20268;-84
2023/08/24 14:27:41;;;;;;;1.95;1.20;;;;;;;;;;5015787;28;20234;-85
2023/08/24 14:30:07;;;;;;;3.55;1.30;;;;;;;;;;5037248;28;20253;-84
2023/08/24 14:32:35;;;;;;;2.65;1.50;;;;;;;;;;5044743;28;20219;-83
2023/08/24 14:35:00;;;;;;;1.80;1.40;;;;;;;;;;5049551;28;20385;-84
2023/08/24 14:37:28;;;;;;;2.55;1.42;;;;;;;;;;5028327;28;20222;-84
2023/08/24 14:39:56;;;;;;;2.95;1.63;;;;;;;;;;5019960;28;20230;-85
2023/08/24 14:42:25;;;;;;;3.08;1.50;;;;;;;;;;5041021;28;20219;-84
2023/08/24 14:44:50;;;;;;;1.95;1.40;;;;;;;;;;5036691;28;20212;-85
2023/08/24 14:47:16;;;;;;;3.45;1.60;;;;;;;;;;5057242;28;20241;-84
2023/08/24 14:49:44;;;;;;;1.63;1.50;;;;;;;;;;5025267;28;20409;-84
2023/08/24 14:52:09;;;;;;;1.92;1.48;;;;;;;;;;5030107;28;20591;-84
2023/08/24 14:54:35;;;;;;;1.75;1.60;;;;;;;;;;5024283;28;20215;-82